createdAt,value
2023-03-17T00:01:55.055Z,5.90
2023-03-17T00:04:24.280Z,5.90
2023-03-17T00:06:52.790Z,5.90
2023-03-17T00:09:20.657Z,5.90
2023-03-17T00:11:48.277Z,5.90
2023-03-17T00:14:15.140Z,5.90
2023-03-17T00:16:49.611Z,5.90
2023-03-17T00:19:31.029Z,5.90
2023-03-17T00:21:59.085Z,5.90
2023-03-17T00:24:26.304Z,5.90
2023-03-17T00:26:53.380Z,5.90
2023-03-17T00:29:20.502Z,5.80
2023-03-17T00:31:47.327Z,5.80
2023-03-17T00:34:18.544Z,5.70
2023-03-17T00:36:50.828Z,5.70
2023-03-17T00:39:18.747Z,5.60
2023-03-17T00:44:12.794Z,5.60
2023-03-17T00:46:41.529Z,5.50
2023-03-17T00:51:44.749Z,5.50
2023-03-17T00:54:12.957Z,5.50
2023-03-17T00:56:41.664Z,5.40
2023-03-17T00:59:38.834Z,5.40
2023-03-17T01:02:05.702Z,5.40
2023-03-17T01:04:33.891Z,5.30
2023-03-17T01:07:00.787Z,5.30
2023-03-17T01:09:28.450Z,5.30
2023-03-17T01:11:55.957Z,5.30
2023-03-17T01:14:23.159Z,5.30
2023-03-17T01:16:50.551Z,5.20
2023-03-17T01:19:17.964Z,5.20
2023-03-17T01:21:45.825Z,5.20
2023-03-17T01:24:12.866Z,5.20
2023-03-17T01:26:40.507Z,5.20
2023-03-17T01:29:07.988Z,5.20
2023-03-17T01:31:35.423Z,5.20
2023-03-17T01:34:02.799Z,5.20
2023-03-17T01:36:29.628Z,5.30
2023-03-17T01:38:57.272Z,5.30
2023-03-17T01:41:25.047Z,5.40
2023-03-17T01:43:51.873Z,5.40
2023-03-17T01:46:32.658Z,5.40
2023-03-17T01:49:30.298Z,5.40
2023-03-17T01:52:03.007Z,5.40
2023-03-17T01:54:30.123Z,5.40
2023-03-17T01:57:13.052Z,5.40
2023-03-17T01:59:45.627Z,5.40
2023-03-17T02:02:14.765Z,5.50
2023-03-17T02:04:41.891Z,5.40
2023-03-17T02:07:10.202Z,5.50
2023-03-17T02:09:37.307Z,5.40
2023-03-17T02:12:05.331Z,5.40
2023-03-17T02:14:32.150Z,5.40
2023-03-17T02:16:59.102Z,5.30
2023-03-17T02:19:26.951Z,5.30
2023-03-17T02:21:56.882Z,5.20
2023-03-17T02:24:43.387Z,5.20
2023-03-17T02:27:18.646Z,5.10
2023-03-17T02:29:46.447Z,5.10
2023-03-17T02:32:18.226Z,5.10
2023-03-17T02:34:47.058Z,5.10
2023-03-17T02:37:14.465Z,5.10
2023-03-17T02:39:41.544Z,5.10
2023-03-17T02:42:08.993Z,5.10
2023-03-17T02:44:35.971Z,5.20
2023-03-17T02:47:03.462Z,5.20
2023-03-17T02:49:31.903Z,5.30
2023-03-17T02:51:58.956Z,5.30
2023-03-17T02:54:26.589Z,5.30
2023-03-17T02:56:53.504Z,5.40
2023-03-17T02:59:20.315Z,5.40
2023-03-17T03:01:48.621Z,5.40
2023-03-17T03:04:15.567Z,5.40
2023-03-17T03:06:44.634Z,5.40
2023-03-17T03:09:12.219Z,5.30
2023-03-17T03:11:39.684Z,5.20
2023-03-17T03:14:08.239Z,5.20
2023-03-17T03:16:35.054Z,5.10
2023-03-17T03:19:02.248Z,5.10
2023-03-17T03:21:29.516Z,5.00
2023-03-17T03:23:56.350Z,5.00
2023-03-17T03:26:23.412Z,5.00
2023-03-17T03:28:50.677Z,5.00
2023-03-17T03:31:17.524Z,4.90
2023-03-17T03:33:44.710Z,4.90
2023-03-17T03:36:12.047Z,4.90
2023-03-17T03:38:39.138Z,4.80
2023-03-17T03:41:06.410Z,4.80
2023-03-17T03:43:33.412Z,4.80
2023-03-17T03:46:00.473Z,4.80
2023-03-17T03:48:27.372Z,4.70
2023-03-17T03:50:59.670Z,4.80
2023-03-17T03:53:27.043Z,4.80
2023-03-17T03:55:54.568Z,4.70
2023-03-17T03:58:21.971Z,4.70
2023-03-17T04:00:48.830Z,4.70
2023-03-17T04:03:16.046Z,4.70
2023-03-17T04:05:42.976Z,4.70
2023-03-17T04:08:11.124Z,4.70
2023-03-17T04:10:37.950Z,4.60
2023-03-17T04:13:04.762Z,4.60
2023-03-17T04:15:31.556Z,4.60
2023-03-17T04:17:58.412Z,4.50
2023-03-17T04:20:25.518Z,4.50
2023-03-17T04:22:52.452Z,4.40
2023-03-17T04:25:19.356Z,4.30
2023-03-17T04:27:46.137Z,4.30
2023-03-17T04:30:14.601Z,4.30
2023-03-17T04:32:41.877Z,4.30
2023-03-17T04:35:15.830Z,4.20
2023-03-17T04:37:42.912Z,4.20
2023-03-17T04:40:11.530Z,4.30
2023-03-17T04:42:38.986Z,4.20
2023-03-17T04:45:07.134Z,4.20
2023-03-17T04:47:34.160Z,4.20
2023-03-17T04:50:01.557Z,4.20
2023-03-17T04:52:28.566Z,4.10
2023-03-17T04:54:55.434Z,4.10
2023-03-17T04:57:22.729Z,4.10
2023-03-17T04:59:49.532Z,4.10
2023-03-17T05:02:16.361Z,4.10
2023-03-17T05:04:43.400Z,4.10
2023-03-17T05:07:10.253Z,4.00
2023-03-17T05:09:37.871Z,4.10
2023-03-17T05:12:04.981Z,4.00
2023-03-17T05:14:31.779Z,4.00
2023-03-17T05:16:58.550Z,4.00
2023-03-17T05:19:25.516Z,4.10
2023-03-17T05:21:52.394Z,4.00
2023-03-17T05:24:19.346Z,4.00
2023-03-17T05:26:46.457Z,4.00
2023-03-17T05:29:13.605Z,3.90
2023-03-17T05:31:40.513Z,4.00
2023-03-17T05:34:07.303Z,3.90
2023-03-17T05:36:34.280Z,3.90
2023-03-17T05:39:01.124Z,3.90
2023-03-17T05:41:28.437Z,3.90
2023-03-17T05:43:55.969Z,3.90
2023-03-17T05:46:22.795Z,3.90
2023-03-17T05:48:49.592Z,3.80
2023-03-17T05:51:16.737Z,3.80
2023-03-17T05:53:43.819Z,3.80
2023-03-17T05:56:10.709Z,3.80
2023-03-17T05:58:37.598Z,3.80
2023-03-17T06:01:04.646Z,3.80
2023-03-17T06:03:31.762Z,3.80
2023-03-17T06:05:58.614Z,3.80
2023-03-17T06:08:25.814Z,3.90
2023-03-17T06:10:52.731Z,3.90
2023-03-17T06:13:20.057Z,4.00
2023-03-17T06:15:48.505Z,4.00
2023-03-17T06:18:15.436Z,4.00
2023-03-17T06:20:42.274Z,4.00
2023-03-17T06:23:09.067Z,4.00
2023-03-17T06:25:37.081Z,4.00
2023-03-17T06:28:06.692Z,4.00
2023-03-17T06:30:35.155Z,4.00
2023-03-17T06:33:02.835Z,4.00
2023-03-17T06:35:31.646Z,4.00
2023-03-17T06:37:58.994Z,4.00
2023-03-17T06:40:25.916Z,4.00
2023-03-17T06:42:53.266Z,4.00
2023-03-17T06:45:20.255Z,4.10
2023-03-17T06:47:47.106Z,4.20
2023-03-17T06:50:14.125Z,4.20
2023-03-17T06:52:41.353Z,4.30
2023-03-17T06:55:08.954Z,4.40
2023-03-17T06:57:36.621Z,4.60
2023-03-17T07:00:06.660Z,4.80
2023-03-17T07:02:33.839Z,5.00
2023-03-17T07:05:01.145Z,5.10
2023-03-17T07:07:28.387Z,5.20
2023-03-17T07:09:55.258Z,5.30
2023-03-17T07:12:22.165Z,5.40
2023-03-17T07:14:49.024Z,5.50
2023-03-17T07:17:16.201Z,5.50
2023-03-17T07:19:43.637Z,5.60
2023-03-17T07:22:12.355Z,5.70
2023-03-17T07:24:39.783Z,5.80
2023-03-17T07:27:07.051Z,6.00
2023-03-17T07:29:34.664Z,6.10
2023-03-17T07:32:02.155Z,6.20
2023-03-17T07:34:29.418Z,6.30
2023-03-17T07:36:56.615Z,6.40
2023-03-17T07:39:23.497Z,6.50
2023-03-17T07:41:55.162Z,6.60
2023-03-17T07:44:23.325Z,6.70
2023-03-17T07:46:51.617Z,6.80
2023-03-17T07:49:25.172Z,6.90
2023-03-17T07:52:01.123Z,7.00
2023-03-17T07:54:29.235Z,7.20
2023-03-17T07:56:56.914Z,7.30
2023-03-17T07:59:24.466Z,7.40
2023-03-17T08:01:51.795Z,7.40
2023-03-17T08:04:19.171Z,7.40
2023-03-17T08:06:46.964Z,7.50
2023-03-17T08:09:15.047Z,7.60
2023-03-17T08:11:42.125Z,7.70
2023-03-17T08:14:10.066Z,7.80
2023-03-17T08:16:37.149Z,7.80
2023-03-17T08:19:04.692Z,7.90
2023-03-17T08:21:32.083Z,8.10
2023-03-17T08:23:59.184Z,8.10
2023-03-17T08:26:27.229Z,8.30
2023-03-17T08:28:54.522Z,8.30
2023-03-17T08:31:22.989Z,8.40
2023-03-17T08:33:54.374Z,8.40
2023-03-17T08:36:21.972Z,8.50
2023-03-17T08:38:48.881Z,8.60
2023-03-17T08:41:18.510Z,8.60
2023-03-17T08:43:46.719Z,8.60
2023-03-17T08:46:27.506Z,8.70
2023-03-17T08:48:56.447Z,8.80
2023-03-17T08:51:26.833Z,8.90
2023-03-17T08:53:55.197Z,9.00
2023-03-17T08:56:23.347Z,9.20
2023-03-17T08:58:51.003Z,9.40
2023-03-17T09:01:19.163Z,9.60
2023-03-17T09:03:46.866Z,9.80
2023-03-17T09:06:14.291Z,9.90
2023-03-17T09:08:47.821Z,10.10
2023-03-17T09:11:17.795Z,10.20
2023-03-17T09:13:46.647Z,10.30
2023-03-17T09:16:18.177Z,10.40
2023-03-17T09:18:46.484Z,10.40
2023-03-17T09:21:14.567Z,10.60
2023-03-17T09:23:42.437Z,10.60
2023-03-17T09:26:10.232Z,10.70
2023-03-17T09:28:37.445Z,10.70
2023-03-17T09:31:07.773Z,10.80
2023-03-17T09:33:34.682Z,10.90
2023-03-17T09:36:01.574Z,11.00
2023-03-17T09:38:28.615Z,11.10
2023-03-17T09:41:20.644Z,11.20
2023-03-17T09:44:26.587Z,11.20
2023-03-17T09:47:19.468Z,11.40
2023-03-17T09:49:56.020Z,11.50
2023-03-17T09:52:32.043Z,11.60
2023-03-17T09:55:00.123Z,11.60
2023-03-17T09:57:35.023Z,11.80
2023-03-17T10:00:14.713Z,11.80
2023-03-17T10:02:43.213Z,11.80
2023-03-17T10:05:20.704Z,11.90
2023-03-17T10:08:28.975Z,11.90
2023-03-17T10:11:27.022Z,11.90
2023-03-17T10:14:33.694Z,12.00
2023-03-17T10:17:22.569Z,12.10
2023-03-17T10:20:24.689Z,12.30
2023-03-17T10:23:07.114Z,12.40
2023-03-17T10:25:36.469Z,12.60
2023-03-17T10:28:18.498Z,12.70
2023-03-17T10:30:45.799Z,12.70
2023-03-17T10:33:13.058Z,12.80
2023-03-17T10:35:40.595Z,12.80
2023-03-17T10:38:22.567Z,12.80
2023-03-17T10:40:59.527Z,12.80
2023-03-17T10:43:41.710Z,13.00
2023-03-17T10:46:25.761Z,13.00
2023-03-17T10:49:16.383Z,13.10
2023-03-17T10:51:46.473Z,13.20
2023-03-17T10:54:18.344Z,13.20
2023-03-17T10:56:49.121Z,13.20
2023-03-17T10:59:44.503Z,13.30
2023-03-17T11:02:26.139Z,13.30
2023-03-17T11:05:03.142Z,13.40
2023-03-17T11:07:38.734Z,13.40
2023-03-17T11:10:23.678Z,13.50
2023-03-17T11:12:58.960Z,13.60
2023-03-17T11:15:33.850Z,13.70
2023-03-17T11:18:03.538Z,13.70
2023-03-17T11:20:39.098Z,13.70
2023-03-17T11:23:41.825Z,13.80
2023-03-17T11:26:59.869Z,13.90
2023-03-17T11:29:38.690Z,14.00
2023-03-17T11:32:15.306Z,14.00
2023-03-17T11:35:14.643Z,14.00
2023-03-17T11:38:04.193Z,14.10
2023-03-17T11:40:35.361Z,14.10
2023-03-17T11:43:19.048Z,14.10
2023-03-17T11:45:51.913Z,14.30
2023-03-17T11:48:22.318Z,14.40
2023-03-17T11:51:21.776Z,14.30
2023-03-17T11:54:36.804Z,14.30
2023-03-17T11:57:08.993Z,14.30
2023-03-17T11:59:54.475Z,14.40
2023-03-17T12:02:27.237Z,14.30
2023-03-17T12:05:09.779Z,14.30
2023-03-17T12:07:39.106Z,14.40
2023-03-17T12:10:08.753Z,14.30
2023-03-17T12:12:42.760Z,14.30
2023-03-17T12:15:22.333Z,14.40
2023-03-17T12:18:04.287Z,14.50
2023-03-17T12:20:44.879Z,14.50
2023-03-17T12:23:33.754Z,14.50
2023-03-17T12:26:12.793Z,14.50
2023-03-17T12:28:56.198Z,14.50
2023-03-17T12:31:29.460Z,14.50
2023-03-17T12:34:20.894Z,14.60
2023-03-17T12:36:49.210Z,14.60
2023-03-17T12:39:32.369Z,14.60
2023-03-17T12:42:08.875Z,14.50
2023-03-17T12:44:57.638Z,14.50
2023-03-17T12:48:03.606Z,14.60
2023-03-17T12:50:54.797Z,14.70
2023-03-17T12:53:29.643Z,14.70
2023-03-17T12:56:10.925Z,14.70
2023-03-17T12:58:40.677Z,14.70
2023-03-17T13:01:17.450Z,14.70
2023-03-17T13:04:02.438Z,14.80
2023-03-17T13:06:43.107Z,14.80
2023-03-17T13:09:33.489Z,14.80
2023-03-17T13:12:01.945Z,14.80
2023-03-17T13:14:47.526Z,14.80
2023-03-17T13:17:20.018Z,14.90
2023-03-17T13:20:08.033Z,15.00
2023-03-17T13:22:38.862Z,14.90
2023-03-17T13:25:27.433Z,15.00
2023-03-17T13:27:54.294Z,15.10
2023-03-17T13:30:26.921Z,15.20
2023-03-17T13:33:19.954Z,15.20
2023-03-17T13:35:59.167Z,15.30
2023-03-17T13:38:35.395Z,15.40
2023-03-17T13:41:20.508Z,15.30
2023-03-17T13:44:06.681Z,15.40
2023-03-17T13:46:36.380Z,15.40
2023-03-17T13:49:21.382Z,15.30
2023-03-17T13:52:00.408Z,15.40
2023-03-17T13:54:30.440Z,15.40
2023-03-17T13:57:17.221Z,15.40
2023-03-17T14:00:02.958Z,15.40
2023-03-17T14:02:32.952Z,15.40
2023-03-17T14:05:03.153Z,15.40
2023-03-17T14:07:47.968Z,15.40
2023-03-17T14:10:21.657Z,15.40
2023-03-17T14:13:13.548Z,15.40
2023-03-17T14:16:03.937Z,15.40
2023-03-17T14:18:39.889Z,15.40
2023-03-17T14:21:18.896Z,15.50
2023-03-17T14:23:53.996Z,15.50
2023-03-17T14:26:23.660Z,15.50
2023-03-17T14:28:50.462Z,15.50
2023-03-17T14:31:24.402Z,15.50
2023-03-17T14:33:59.730Z,15.40
2023-03-17T14:36:28.622Z,15.40
2023-03-17T14:38:56.789Z,15.40
2023-03-17T14:41:27.132Z,15.40
2023-03-17T14:43:58.327Z,15.40
2023-03-17T14:46:31.392Z,15.40
2023-03-17T14:49:01.908Z,15.40
2023-03-17T14:51:33.912Z,15.40
2023-03-17T14:54:12.700Z,15.40
2023-03-17T14:56:43.512Z,15.30
2023-03-17T14:59:36.261Z,15.30
2023-03-17T15:02:15.786Z,15.30
2023-03-17T15:04:58.076Z,15.20
2023-03-17T15:07:42.866Z,15.20
2023-03-17T15:10:39.759Z,15.30
2023-03-17T15:13:07.140Z,15.20
2023-03-17T15:15:37.166Z,15.20
2023-03-17T15:18:11.392Z,15.20
2023-03-17T15:20:38.890Z,15.20
2023-03-17T15:23:18.404Z,15.20
2023-03-17T15:25:55.582Z,15.10
2023-03-17T15:28:28.875Z,15.10
2023-03-17T15:31:05.848Z,15.10
2023-03-17T15:33:39.147Z,15.10
2023-03-17T15:36:07.701Z,15.10
2023-03-17T15:38:36.778Z,15.10
2023-03-17T15:41:03.566Z,15.10
2023-03-17T15:43:30.389Z,15.00
2023-03-17T15:46:06.997Z,15.00
2023-03-17T15:48:38.964Z,15.00
2023-03-17T15:51:06.236Z,15.00
2023-03-17T15:53:33.024Z,14.90
2023-03-17T15:55:59.882Z,14.80
2023-03-17T15:58:26.851Z,14.70
2023-03-17T16:00:57.442Z,14.60
2023-03-17T16:03:35.319Z,14.60
2023-03-17T16:06:04.235Z,14.50
2023-03-17T16:08:31.437Z,14.40
2023-03-17T16:10:58.321Z,14.40
2023-03-17T16:13:25.357Z,14.30
2023-03-17T16:16:00.999Z,14.30
2023-03-17T16:18:37.673Z,14.20
2023-03-17T16:21:05.408Z,14.20
2023-03-17T16:23:36.515Z,14.20
2023-03-17T16:26:14.200Z,14.20
2023-03-17T16:28:44.666Z,14.10
2023-03-17T16:31:30.610Z,14.00
2023-03-17T16:33:57.618Z,14.00
2023-03-17T16:36:26.035Z,13.90
2023-03-17T16:38:53.088Z,13.90
2023-03-17T16:41:22.880Z,13.80
2023-03-17T16:43:57.541Z,13.70
2023-03-17T16:46:27.096Z,13.70
2023-03-17T16:48:53.987Z,13.60
2023-03-17T16:51:20.845Z,13.60
2023-03-17T16:53:47.755Z,13.60
2023-03-17T16:56:21.437Z,13.50
2023-03-17T16:58:49.349Z,13.50
2023-03-17T17:01:27.886Z,13.50
2023-03-17T17:03:55.656Z,13.40
2023-03-17T17:06:24.056Z,13.30
2023-03-17T17:08:51.867Z,13.20
2023-03-17T17:11:20.025Z,13.10
2023-03-17T17:13:48.913Z,13.00
2023-03-17T17:16:22.534Z,13.00
2023-03-17T17:18:49.721Z,12.90
2023-03-17T17:21:16.795Z,12.80
2023-03-17T17:23:43.693Z,12.70
2023-03-17T17:26:10.808Z,12.70
2023-03-17T17:28:39.966Z,12.70
2023-03-17T17:31:10.885Z,12.70
2023-03-17T17:33:38.177Z,12.70
2023-03-17T17:36:08.117Z,12.70
2023-03-17T17:38:35.063Z,12.70
2023-03-17T17:41:03.353Z,12.60
2023-03-17T17:43:30.553Z,12.50
2023-03-17T17:45:58.161Z,12.50
2023-03-17T17:48:27.547Z,12.40
2023-03-17T17:50:56.187Z,12.30
2023-03-17T17:53:23.502Z,12.20
2023-03-17T17:55:51.298Z,12.10
2023-03-17T17:58:22.277Z,12.10
2023-03-17T18:00:49.945Z,12.00
2023-03-17T18:03:17.250Z,12.00
2023-03-17T18:05:44.393Z,11.90
2023-03-17T18:08:14.760Z,11.90
2023-03-17T18:10:42.113Z,11.80
2023-03-17T18:13:09.626Z,11.80
2023-03-17T18:15:36.435Z,11.70
2023-03-17T18:18:03.217Z,11.70
2023-03-17T18:20:31.345Z,11.60
2023-03-17T18:22:58.310Z,11.50
2023-03-17T18:25:27.261Z,11.50
2023-03-17T18:27:54.896Z,11.40
2023-03-17T18:30:27.841Z,11.40
2023-03-17T18:32:58.134Z,11.40
2023-03-17T18:35:27.138Z,11.50
2023-03-17T18:37:55.371Z,11.60
2023-03-17T18:40:22.198Z,11.70
2023-03-17T18:42:49.086Z,11.80
2023-03-17T18:45:16.576Z,11.80
2023-03-17T18:47:43.543Z,11.80
2023-03-17T18:50:12.623Z,11.90
2023-03-17T18:52:41.485Z,11.90
2023-03-17T18:55:11.204Z,11.90
2023-03-17T18:57:38.727Z,11.90
2023-03-17T19:00:08.608Z,11.90
2023-03-17T19:02:37.222Z,11.90
2023-03-17T19:05:04.972Z,11.90
2023-03-17T19:07:32.062Z,11.90
2023-03-17T19:09:59.372Z,11.90
2023-03-17T19:12:26.728Z,11.90
2023-03-17T19:14:53.605Z,11.90
2023-03-17T19:17:20.389Z,11.80
2023-03-17T19:19:47.214Z,11.80
2023-03-17T19:22:14.176Z,11.80
2023-03-17T19:24:41.220Z,11.70
2023-03-17T19:27:08.255Z,11.70
2023-03-17T19:29:35.021Z,11.60
2023-03-17T19:32:02.395Z,11.60
2023-03-17T19:34:29.224Z,11.70
2023-03-17T19:36:56.111Z,11.70
2023-03-17T19:39:23.085Z,11.70
2023-03-17T19:41:53.239Z,11.70
2023-03-17T19:44:20.079Z,11.80
2023-03-17T19:46:47.223Z,11.80
2023-03-17T19:49:14.249Z,11.80
2023-03-17T19:51:43.928Z,11.80
2023-03-17T19:54:11.244Z,11.90
2023-03-17T19:56:38.792Z,11.90
2023-03-17T19:59:06.784Z,11.80
2023-03-17T20:01:33.887Z,11.80
2023-03-17T20:04:01.188Z,11.80
2023-03-17T20:06:28.113Z,11.90
2023-03-17T20:08:54.984Z,11.80
2023-03-17T20:11:23.737Z,11.80
2023-03-17T20:13:50.827Z,11.80
2023-03-17T20:16:18.814Z,11.80
2023-03-17T20:18:45.915Z,11.80
2023-03-17T20:21:13.939Z,11.80
2023-03-17T20:23:41.045Z,11.70
2023-03-17T20:26:09.256Z,11.70
2023-03-17T20:28:36.555Z,11.70
2023-03-17T20:31:04.868Z,11.70
2023-03-17T20:33:33.621Z,11.60
2023-03-17T20:36:01.940Z,11.60
2023-03-17T20:38:29.243Z,11.60
2023-03-17T20:41:15.006Z,11.60
2023-03-17T20:43:42.228Z,11.60
2023-03-17T20:46:14.017Z,11.60
2023-03-17T20:48:41.459Z,11.60
2023-03-17T20:51:15.632Z,11.60
2023-03-17T20:53:47.564Z,11.60
2023-03-17T20:56:16.390Z,11.50
2023-03-17T20:58:45.402Z,11.50
2023-03-17T21:01:12.881Z,11.30
2023-03-17T21:03:44.469Z,11.20
2023-03-17T21:06:11.805Z,11.20
2023-03-17T21:08:39.732Z,11.20
2023-03-17T21:11:08.156Z,11.00
2023-03-17T21:13:35.312Z,11.00
2023-03-17T21:16:03.547Z,10.90
2023-03-17T21:18:30.518Z,10.80
2023-03-17T21:20:58.199Z,10.80
2023-03-17T21:23:25.348Z,10.70
2023-03-17T21:25:56.269Z,10.70
2023-03-17T21:28:23.687Z,10.70
2023-03-17T21:30:51.268Z,10.70
2023-03-17T21:33:18.561Z,10.70
2023-03-17T21:35:45.482Z,10.60
2023-03-17T21:38:12.390Z,10.60
2023-03-17T21:40:39.605Z,10.50
2023-03-17T21:43:06.598Z,10.60
2023-03-17T21:45:33.480Z,10.60
2023-03-17T21:48:00.724Z,10.80
2023-03-17T21:50:27.695Z,10.80
2023-03-17T21:52:55.124Z,10.90
2023-03-17T21:55:21.954Z,10.80
2023-03-17T21:57:49.309Z,10.80
2023-03-17T22:00:17.222Z,10.70
2023-03-17T22:02:44.016Z,10.60
2023-03-17T22:05:10.917Z,10.50
2023-03-17T22:07:38.733Z,10.50
2023-03-17T22:10:09.009Z,10.50
2023-03-17T22:12:36.505Z,10.50
2023-03-17T22:15:04.439Z,10.40
2023-03-17T22:17:32.712Z,10.40
2023-03-17T22:19:59.523Z,10.20
2023-03-17T22:22:26.819Z,10.20
2023-03-17T22:24:53.691Z,10.20
2023-03-17T22:27:20.924Z,10.10
2023-03-17T22:29:48.153Z,10.10
2023-03-17T22:32:15.060Z,10.20
2023-03-17T22:34:42.637Z,10.20
2023-03-17T22:37:09.713Z,10.20
2023-03-17T22:39:37.042Z,10.20
2023-03-17T22:42:04.062Z,10.20
2023-03-17T22:44:31.091Z,10.30
2023-03-17T22:46:58.084Z,10.20
2023-03-17T22:49:25.244Z,10.20
2023-03-17T22:51:52.129Z,10.20
2023-03-17T22:54:19.194Z,10.10
2023-03-17T22:56:46.190Z,10.10
2023-03-17T22:59:13.115Z,10.00
2023-03-17T23:01:40.235Z,10.00
2023-03-17T23:04:07.865Z,10.00
2023-03-17T23:06:35.987Z,9.90
2023-03-17T23:09:02.840Z,9.90
2023-03-17T23:11:29.858Z,9.80
2023-03-17T23:13:56.954Z,9.80
2023-03-17T23:16:24.534Z,9.80
2023-03-17T23:18:51.631Z,9.60
2023-03-17T23:21:30.977Z,9.50
2023-03-17T23:23:58.203Z,9.50
2023-03-17T23:26:25.912Z,9.40
2023-03-17T23:28:52.864Z,9.40
2023-03-17T23:31:20.585Z,9.30
2023-03-17T23:33:49.269Z,9.40
2023-03-17T23:36:17.679Z,9.40
2023-03-17T23:38:45.903Z,9.30
2023-03-17T23:41:14.674Z,9.30
2023-03-17T23:43:42.456Z,9.40
2023-03-17T23:46:09.611Z,9.30
2023-03-17T23:48:36.889Z,9.30
2023-03-17T23:51:04.064Z,9.40
2023-03-17T23:53:31.444Z,9.40
2023-03-17T23:55:59.117Z,9.50
2023-03-17T23:58:27.028Z,9.50
